createdAt,value
2019-04-03T00:01:09.394Z,7.33
2019-04-03T00:03:38.749Z,5.37
2019-04-03T00:06:08.102Z,4.97
2019-04-03T00:08:40.495Z,6.40
2019-04-03T00:11:11.580Z,6.20
2019-04-03T00:13:42.375Z,6.13
2019-04-03T00:16:11.879Z,6.10
2019-04-03T00:18:41.234Z,6.27
2019-04-03T00:21:10.604Z,9.20
2019-04-03T00:23:39.973Z,6.43
2019-04-03T00:26:09.336Z,6.53
2019-04-03T00:28:38.682Z,6.70
2019-04-03T00:31:08.428Z,5.47
2019-04-03T00:33:37.782Z,6.77
2019-04-03T00:36:07.147Z,7.27
2019-04-03T00:38:37.063Z,6.17
2019-04-03T00:41:06.414Z,12.57
2019-04-03T00:43:40.173Z,11.20
2019-04-03T00:46:09.779Z,6.00
2019-04-03T00:48:39.132Z,8.03
2019-04-03T00:51:08.491Z,6.73
2019-04-03T00:53:39.492Z,11.37
2019-04-03T00:56:08.929Z,8.57
2019-04-03T00:58:43.389Z,9.37
2019-04-03T01:01:13.719Z,11.43
2019-04-03T01:03:43.135Z,10.70
2019-04-03T01:06:12.575Z,7.17
2019-04-03T01:08:42.032Z,8.23
2019-04-03T01:11:12.730Z,9.17
2019-04-03T01:13:42.094Z,8.70
2019-04-03T01:16:11.446Z,8.07
2019-04-03T01:18:40.794Z,9.87
2019-04-03T01:21:10.152Z,9.90
2019-04-03T01:23:40.310Z,8.80
2019-04-03T01:26:10.309Z,11.10
2019-04-03T01:28:41.429Z,7.63
2019-04-03T01:31:11.033Z,8.40
2019-04-03T01:33:40.374Z,8.57
2019-04-03T01:36:09.731Z,8.28
2019-04-03T01:38:39.116Z,8.67
2019-04-03T01:41:08.478Z,8.23
2019-04-03T01:43:38.665Z,8.43
2019-04-03T01:46:14.091Z,13.90
2019-04-03T01:48:43.500Z,7.33
2019-04-03T01:51:12.814Z,7.57
2019-04-03T02:14:32.654Z,7.57
2019-04-03T02:17:02.030Z,6.03
2019-04-03T02:19:31.438Z,5.83
2019-04-03T02:22:00.838Z,7.27
2019-04-03T02:24:32.181Z,11.13
2019-04-03T02:27:03.069Z,10.27
2019-04-03T02:29:35.462Z,6.83
2019-04-03T02:32:24.927Z,9.60
2019-04-03T02:34:54.407Z,5.73
2019-04-03T02:37:23.995Z,6.87
2019-04-03T02:39:53.429Z,5.20
2019-04-03T02:42:22.833Z,5.00
2019-04-03T02:44:52.231Z,5.03
2019-04-03T02:47:21.646Z,5.67
2019-04-03T02:49:51.410Z,5.17
2019-04-03T02:52:24.078Z,5.13
2019-04-03T02:54:55.958Z,4.87
2019-04-03T02:57:25.333Z,5.10
2019-04-03T02:59:57.906Z,5.37
2019-04-03T03:02:27.079Z,3.85
2019-04-03T03:04:56.950Z,4.63
2019-04-03T03:07:26.629Z,4.83
2019-04-03T03:09:57.030Z,4.77
2019-04-03T03:12:27.808Z,5.27
2019-04-03T03:14:58.848Z,5.10
2019-04-03T03:17:30.082Z,5.77
2019-04-03T03:20:06.516Z,4.50
2019-04-03T03:22:37.820Z,5.00
2019-04-03T03:25:08.874Z,5.03
2019-04-03T03:27:41.898Z,7.03
2019-04-03T03:30:30.961Z,8.17
2019-04-03T03:32:41.975Z,7.73
2019-04-03T03:35:17.808Z,6.47
2019-04-03T03:37:46.466Z,4.90
2019-04-03T03:40:16.966Z,4.90
2019-04-03T03:42:51.407Z,5.67
2019-04-03T03:45:22.588Z,4.50
2019-04-03T03:47:53.485Z,4.63
2019-04-03T03:50:29.572Z,4.70
2019-04-03T03:52:59.763Z,5.33
2019-04-03T03:55:31.263Z,8.50
2019-04-03T03:58:01.871Z,4.83
2019-04-03T04:00:31.893Z,4.93
2019-04-03T04:03:01.914Z,4.80
2019-04-03T04:05:31.874Z,5.87
2019-04-03T04:08:01.201Z,4.90
2019-04-03T04:10:36.399Z,4.90
2019-04-03T04:13:04.847Z,4.97
2019-04-03T04:15:35.095Z,5.20
2019-04-03T04:18:04.519Z,4.70
2019-04-03T04:20:37.736Z,4.20
2019-04-03T04:23:07.381Z,4.93
2019-04-03T04:25:37.250Z,4.40
2019-04-03T04:28:08.774Z,4.83
2019-04-03T04:30:37.825Z,4.80
2019-04-03T04:33:07.187Z,4.40
2019-04-03T04:35:36.588Z,4.00
2019-04-03T04:38:05.940Z,4.23
2019-04-03T04:40:35.553Z,4.47
2019-04-03T04:43:07.445Z,4.57
2019-04-03T04:45:36.599Z,5.27
2019-04-03T04:48:06.799Z,4.70
2019-04-03T04:50:36.194Z,5.57
2019-04-03T04:53:06.387Z,7.17
2019-04-03T04:55:36.021Z,4.85
2019-04-03T04:58:05.579Z,5.30
2019-04-03T05:00:36.578Z,5.23
2019-04-03T05:03:05.946Z,5.33
2019-04-03T05:05:35.857Z,5.23
2019-04-03T05:08:05.276Z,4.17
2019-04-03T05:10:36.587Z,6.28
2019-04-03T05:13:05.813Z,5.73
2019-04-03T05:15:35.247Z,4.37
2019-04-03T05:18:04.855Z,5.17
2019-04-03T05:20:34.309Z,4.60
2019-04-03T05:23:03.909Z,6.00
2019-04-03T05:25:33.359Z,7.70
2019-04-03T05:28:04.432Z,6.33
2019-04-03T05:30:37.205Z,5.33
2019-04-03T05:33:05.982Z,4.17
2019-04-03T05:35:37.594Z,3.97
2019-04-03T05:38:06.770Z,6.00
2019-04-03T05:40:36.618Z,4.53
2019-04-03T05:43:06.457Z,7.17
2019-04-03T05:45:36.212Z,6.23
2019-04-03T05:48:08.231Z,5.37
2019-04-03T05:50:37.091Z,5.67
2019-04-03T05:53:07.002Z,5.00
2019-04-03T05:55:36.424Z,5.60
2019-04-03T05:58:05.935Z,7.33
2019-04-03T06:00:37.515Z,4.70
2019-04-03T06:03:06.376Z,4.20
2019-04-03T06:05:35.817Z,6.57
2019-04-03T06:08:05.183Z,6.13
2019-04-03T06:10:37.360Z,5.13
2019-04-03T06:13:06.283Z,4.90
2019-04-03T06:15:35.688Z,5.17
2019-04-03T06:18:05.221Z,5.40
2019-04-03T06:20:34.632Z,4.83
2019-04-03T06:23:04.288Z,6.13
2019-04-03T06:25:34.792Z,6.13
2019-04-03T06:28:04.882Z,7.07
2019-04-03T06:30:35.364Z,5.40
2019-04-03T06:33:04.856Z,5.90
2019-04-03T06:35:35.389Z,9.20
2019-04-03T06:38:04.923Z,9.70
2019-04-03T06:40:35.448Z,8.30
2019-04-03T06:43:05.395Z,7.60
2019-04-03T06:45:34.764Z,12.80
2019-04-03T06:48:05.113Z,10.30
2019-04-03T06:50:35.297Z,6.47
2019-04-03T06:53:04.648Z,7.00
2019-04-03T06:55:35.514Z,9.53
2019-04-03T06:58:05.296Z,10.13
2019-04-03T07:00:34.725Z,8.50
2019-04-03T07:03:04.546Z,13.07
2019-04-03T07:05:34.280Z,9.07
2019-04-03T07:08:05.427Z,7.17
2019-04-03T07:10:36.540Z,6.17
2019-04-03T07:13:06.580Z,8.13
2019-04-03T07:15:35.958Z,15.07
2019-04-03T07:18:24.921Z,7.83
2019-04-03T07:20:54.277Z,7.87
2019-04-03T07:23:23.802Z,8.90
2019-04-03T07:25:54.831Z,6.03
2019-04-03T07:28:24.613Z,5.97
2019-04-03T07:30:54.409Z,7.90
2019-04-03T07:33:24.256Z,7.27
2019-04-03T07:35:53.708Z,7.53
2019-04-03T07:38:23.426Z,8.60
2019-04-03T07:40:52.937Z,7.47
2019-04-03T07:43:22.549Z,6.97
2019-04-03T07:45:51.849Z,8.83
2019-04-03T07:48:21.257Z,12.37
2019-04-03T07:50:50.817Z,5.90
2019-04-03T07:53:20.503Z,8.00
2019-04-03T07:55:50.591Z,7.57
2019-04-03T07:58:19.928Z,12.47
2019-04-03T08:00:49.377Z,11.23
2019-04-03T08:03:20.759Z,9.10
2019-04-03T08:05:49.792Z,8.20
2019-04-03T08:08:19.166Z,9.33
2019-04-03T08:10:48.620Z,6.97
2019-04-03T08:13:17.978Z,7.30
2019-04-03T08:15:47.690Z,6.77
2019-04-03T08:18:20.420Z,7.83
2019-04-03T08:20:48.749Z,16.20
2019-04-03T08:23:18.094Z,10.87
2019-04-03T08:25:48.702Z,12.90
2019-04-03T08:28:18.556Z,15.13
2019-04-03T08:30:48.444Z,12.27
2019-04-03T08:33:26.217Z,12.43
2019-04-03T08:35:51.361Z,11.40
2019-04-03T08:38:20.716Z,8.90
2019-04-03T08:40:52.530Z,7.63
2019-04-03T08:43:22.104Z,7.43
2019-04-03T08:45:51.375Z,6.57
2019-04-03T08:48:21.222Z,6.73
2019-04-03T08:50:51.170Z,7.17
2019-04-03T08:53:20.510Z,6.83
2019-04-03T08:55:49.961Z,5.60
2019-04-03T08:58:20.982Z,6.00
2019-04-03T09:00:50.784Z,6.23
2019-04-03T09:03:20.562Z,5.87
2019-04-03T09:05:50.903Z,5.87
2019-04-03T09:08:21.048Z,5.63
2019-04-03T09:10:50.567Z,8.23
2019-04-03T09:13:22.909Z,6.83
2019-04-03T09:15:51.118Z,5.20
2019-04-03T09:18:20.777Z,4.33
2019-04-03T09:20:50.359Z,3.30
2019-04-03T09:23:19.687Z,3.13
2019-04-03T09:25:49.319Z,4.83
2019-04-03T09:28:18.692Z,2.93
2019-04-03T09:30:48.566Z,3.53
2019-04-03T09:33:19.772Z,3.07
2019-04-03T09:35:49.147Z,3.00
2019-04-03T09:38:18.520Z,3.30
2019-04-03T09:40:48.785Z,2.97
2019-04-03T09:43:18.105Z,2.83
2019-04-03T09:45:47.478Z,3.70
2019-04-03T09:48:16.861Z,4.30
2019-04-03T09:50:47.238Z,2.40
2019-04-03T09:53:16.735Z,4.17
2019-04-03T09:55:46.707Z,2.23
2019-04-03T09:58:16.071Z,2.00
2019-04-03T10:00:45.443Z,2.40
2019-04-03T10:03:14.906Z,3.30
2019-04-03T10:05:44.260Z,2.63
2019-04-03T10:08:13.746Z,1.80
2019-04-03T10:10:43.075Z,1.70
2019-04-03T10:13:12.484Z,2.33
2019-04-03T10:15:41.899Z,1.50
2019-04-03T10:18:11.995Z,1.60
2019-04-03T10:20:44.310Z,1.60
2019-04-03T10:23:13.609Z,2.47
2019-04-03T10:25:42.998Z,1.67
2019-04-03T10:28:14.956Z,2.23
2019-04-03T10:30:43.429Z,3.60
2019-04-03T10:33:13.374Z,1.70
2019-04-03T10:35:43.747Z,1.70
2019-04-03T10:38:13.161Z,1.87
2019-04-03T10:40:42.567Z,1.80
2019-04-03T10:43:11.991Z,2.80
2019-04-03T10:45:44.294Z,1.93
2019-04-03T10:48:13.679Z,1.90
2019-04-03T10:50:43.115Z,1.80
2019-04-03T10:53:12.456Z,2.10
2019-04-03T10:55:42.580Z,1.60
2019-04-03T10:58:15.116Z,1.70
2019-04-03T11:00:48.048Z,5.23
2019-04-03T11:03:17.478Z,2.63
2019-04-03T11:05:46.789Z,1.80
2019-04-03T11:08:16.151Z,1.40
2019-04-03T11:10:51.804Z,1.50
2019-04-03T11:13:21.256Z,1.60
2019-04-03T11:15:50.610Z,1.70
2019-04-03T11:18:21.855Z,1.80
2019-04-03T11:20:51.230Z,2.10
2019-04-03T11:23:35.721Z,2.07
2019-04-03T11:25:51.697Z,1.60
2019-04-03T11:28:21.072Z,1.67
2019-04-03T11:30:52.826Z,1.93
2019-04-03T11:33:22.345Z,2.00
2019-04-03T11:35:54.017Z,1.60
2019-04-03T11:38:28.200Z,1.70
2019-04-03T11:40:55.523Z,1.43
2019-04-03T11:43:25.589Z,2.23
2019-04-03T11:45:54.889Z,2.03
2019-04-03T11:48:26.790Z,1.67
2019-04-03T11:50:56.612Z,1.30
2019-04-03T11:53:27.126Z,3.23
2019-04-03T11:55:56.424Z,4.27
2019-04-03T11:58:25.786Z,1.20
2019-04-03T12:00:56.677Z,1.60
2019-04-03T12:03:26.834Z,1.47
2019-04-03T12:05:57.911Z,1.53
2019-04-03T12:08:28.528Z,1.20
2019-04-03T12:10:58.311Z,1.70
2019-04-03T12:13:27.658Z,3.57
2019-04-03T12:15:58.395Z,1.77
2019-04-03T12:18:28.420Z,2.20
2019-04-03T12:20:57.812Z,1.80
2019-04-03T12:23:27.730Z,1.30
2019-04-03T12:25:57.223Z,1.50
2019-04-03T12:28:26.595Z,1.43
2019-04-03T12:30:55.977Z,1.50
2019-04-03T12:33:25.372Z,1.60
2019-04-03T12:35:54.853Z,1.62
2019-04-03T12:38:24.210Z,1.50
2019-04-03T12:40:54.620Z,1.40
2019-04-03T12:43:24.384Z,1.50
2019-04-03T12:45:53.877Z,2.30
2019-04-03T12:48:23.252Z,1.27
2019-04-03T12:50:52.620Z,1.70
2019-04-03T12:53:22.341Z,1.77
2019-04-03T12:55:51.763Z,1.25
2019-04-03T12:58:21.672Z,1.67
2019-04-03T13:00:52.597Z,1.53
2019-04-03T13:03:23.842Z,1.60
2019-04-03T13:05:53.800Z,2.13
2019-04-03T13:08:23.186Z,1.50
2019-04-03T13:10:53.214Z,6.17
2019-04-03T13:13:26.807Z,2.13
2019-04-03T13:15:55.376Z,2.10
2019-04-03T13:18:25.706Z,1.97
2019-04-03T13:20:55.346Z,1.60
2019-04-03T13:23:24.771Z,1.80
2019-04-03T13:25:54.592Z,1.60
2019-04-03T13:28:24.966Z,1.60
2019-04-03T13:30:54.569Z,1.50
2019-04-03T13:33:24.409Z,2.50
2019-04-03T13:35:54.085Z,3.23
2019-04-03T13:38:23.532Z,1.90
2019-04-03T13:40:54.009Z,1.70
2019-04-03T13:43:24.038Z,2.17
2019-04-03T13:45:53.680Z,1.50
2019-04-03T13:48:23.031Z,1.60
2019-04-03T13:50:55.175Z,2.07
2019-04-03T13:53:25.577Z,2.20
2019-04-03T13:55:56.444Z,2.20
2019-04-03T13:58:28.551Z,1.83
2019-04-03T14:01:02.375Z,1.77
2019-04-03T14:03:31.934Z,4.30
2019-04-03T14:06:02.213Z,2.20
2019-04-03T14:08:33.232Z,1.70
2019-04-03T14:11:03.005Z,3.07
2019-04-03T14:13:32.356Z,3.73
2019-04-03T14:16:01.725Z,1.90
2019-04-03T14:18:31.089Z,1.87
2019-04-03T14:21:00.428Z,1.70
2019-04-03T14:23:30.692Z,1.90
2019-04-03T14:26:05.239Z,1.90
2019-04-03T14:28:33.343Z,24.10
2019-04-03T14:31:05.201Z,4.00
2019-04-03T14:33:42.948Z,1.80
2019-04-03T14:36:06.386Z,1.80
2019-04-03T14:38:35.728Z,1.93
2019-04-03T14:41:05.266Z,2.00
2019-04-03T14:43:35.649Z,2.20
2019-04-03T14:46:07.752Z,2.40
2019-04-03T14:48:38.338Z,1.93
2019-04-03T14:51:10.963Z,1.98
2019-04-03T14:53:39.449Z,2.50
2019-04-03T14:56:08.847Z,2.30
2019-04-03T14:58:38.229Z,2.10
2019-04-03T15:01:07.704Z,2.20
2019-04-03T15:03:37.267Z,1.97
2019-04-03T15:06:06.882Z,2.63
2019-04-03T15:08:36.253Z,2.40
2019-04-03T15:11:06.814Z,3.10
2019-04-03T15:13:36.691Z,2.87
2019-04-03T15:16:06.333Z,3.00
2019-04-03T15:18:44.886Z,2.70
2019-04-03T15:21:15.785Z,2.17
2019-04-03T15:23:45.322Z,4.07
2019-04-03T15:26:14.730Z,6.37
2019-04-03T15:28:44.355Z,3.13
2019-04-03T15:31:14.916Z,2.77
2019-04-03T15:33:44.634Z,2.60
2019-04-03T15:36:14.871Z,3.57
2019-04-03T15:38:45.656Z,2.20
2019-04-03T15:41:17.365Z,2.90
2019-04-03T15:43:47.724Z,4.47
2019-04-03T15:46:17.795Z,3.37
2019-04-03T15:48:47.866Z,2.50
2019-04-03T15:51:18.897Z,4.17
2019-04-03T15:53:49.510Z,2.90
2019-04-03T15:56:19.986Z,2.57
2019-04-03T15:58:50.951Z,2.80
2019-04-03T16:01:20.568Z,4.73
2019-04-03T16:03:50.552Z,3.23
2019-04-03T16:06:20.181Z,3.07
2019-04-03T16:08:49.714Z,3.30
2019-04-03T16:11:19.522Z,5.17
2019-04-03T16:13:51.348Z,2.67
2019-04-03T16:16:41.324Z,3.20
2019-04-03T16:19:12.656Z,2.70
2019-04-03T16:21:42.051Z,7.77
2019-04-03T16:24:13.253Z,2.40
2019-04-03T16:26:42.739Z,2.70
2019-04-03T16:29:12.074Z,4.00
2019-04-03T16:31:41.717Z,2.60
2019-04-03T16:34:13.023Z,5.17
2019-04-03T16:36:42.998Z,2.80
2019-04-03T16:39:13.046Z,2.80
2019-04-03T16:41:44.097Z,6.27
2019-04-03T16:44:13.486Z,2.60
2019-04-03T16:46:42.912Z,2.70
2019-04-03T16:49:12.258Z,7.73
2019-04-03T16:51:42.475Z,12.93
2019-04-03T16:54:12.720Z,8.70
2019-04-03T16:56:42.640Z,9.87
2019-04-03T16:59:12.848Z,10.30
2019-04-03T17:01:45.596Z,4.93
2019-04-03T17:04:23.809Z,3.60
2019-04-03T17:06:47.580Z,4.40
2019-04-03T17:09:16.187Z,5.70
2019-04-03T17:11:48.650Z,8.57
2019-04-03T17:14:16.619Z,5.87
2019-04-03T17:16:46.995Z,8.97
2019-04-03T17:19:17.554Z,5.50
2019-04-03T17:21:48.135Z,5.97
2019-04-03T17:24:18.744Z,4.10
2019-04-03T17:26:53.445Z,3.37
2019-04-03T17:29:19.580Z,3.47
2019-04-03T17:31:49.767Z,3.77
2019-04-03T17:34:19.624Z,3.27
2019-04-03T17:36:50.030Z,27.00
2019-04-03T17:39:20.198Z,31.47
2019-04-03T17:41:51.724Z,23.63
2019-04-03T17:44:20.649Z,15.30
2019-04-03T17:46:50.461Z,21.87
2019-04-03T17:49:19.837Z,13.13
2019-04-03T17:51:49.191Z,8.63
2019-04-03T17:54:19.319Z,7.13
2019-04-03T17:56:48.691Z,12.60
2019-04-03T17:59:18.901Z,7.57
2019-04-03T18:01:48.425Z,5.80
2019-04-03T18:04:20.085Z,3.80
2019-04-03T18:06:48.943Z,4.70
2019-04-03T18:09:18.815Z,5.10
2019-04-03T18:11:48.173Z,3.60
2019-04-03T18:14:17.583Z,2.53
2019-04-03T18:16:47.707Z,4.23
2019-04-03T18:19:17.071Z,4.60
2019-04-03T18:21:46.902Z,3.93
2019-04-03T18:24:17.533Z,4.57
2019-04-03T18:26:46.881Z,4.33
2019-04-03T18:29:16.247Z,3.10
2019-04-03T18:31:46.047Z,3.23
2019-04-03T18:34:15.438Z,3.80
2019-04-03T18:36:46.537Z,3.17
2019-04-03T18:39:15.967Z,2.53
2019-04-03T18:41:45.867Z,3.10
2019-04-03T18:44:22.192Z,3.60
2019-04-03T18:46:50.188Z,3.17
2019-04-03T18:49:19.243Z,3.67
2019-04-03T18:51:48.631Z,2.83
2019-04-03T18:54:18.001Z,2.60
2019-04-03T18:56:48.628Z,2.80
2019-04-03T18:59:17.973Z,2.33
2019-04-03T19:01:47.398Z,2.30
2019-04-03T19:04:16.757Z,2.40
2019-04-03T19:06:46.125Z,2.70
2019-04-03T19:09:16.614Z,3.10
2019-04-03T19:11:46.468Z,2.83
2019-04-03T19:14:26.542Z,2.77
2019-04-03T19:16:51.624Z,3.10
2019-04-03T19:19:18.086Z,2.97
2019-04-03T19:21:47.468Z,4.00
2019-04-03T19:24:18.135Z,3.30
2019-04-03T19:26:47.487Z,3.33
2019-04-03T19:29:16.854Z,3.13
2019-04-03T19:31:46.230Z,2.90
2019-04-03T19:34:19.680Z,3.23
2019-04-03T19:36:46.708Z,3.50
2019-04-03T19:39:16.087Z,3.40
2019-04-03T19:41:45.440Z,4.00
2019-04-03T19:44:50.717Z,3.70
2019-04-03T19:47:24.590Z,3.80
2019-04-03T19:49:53.890Z,3.83
2019-04-03T19:52:23.268Z,3.67
2019-04-03T19:54:52.723Z,3.63
2019-04-03T19:57:22.063Z,3.27
2019-04-03T19:59:54.852Z,5.57
2019-04-03T20:02:24.202Z,3.93
2019-04-03T20:04:53.557Z,3.80
2019-04-03T20:07:22.961Z,4.03
2019-04-03T20:09:52.296Z,4.20
2019-04-03T20:12:24.661Z,5.10
2019-04-03T20:14:58.301Z,5.77
2019-04-03T20:17:25.134Z,5.00
2019-04-03T20:19:57.591Z,5.87
2019-04-03T20:22:26.239Z,7.07
2019-04-03T20:25:00.096Z,7.70
2019-04-03T20:27:26.778Z,8.73
2019-04-03T20:29:56.173Z,7.33
2019-04-03T20:32:25.521Z,7.17
2019-04-03T20:34:57.566Z,5.90
2019-04-03T20:37:27.594Z,6.27
2019-04-03T20:39:59.701Z,6.13
2019-04-03T20:42:28.016Z,6.70
2019-04-03T20:44:57.413Z,6.93
2019-04-03T20:47:27.468Z,7.00
2019-04-03T20:49:56.898Z,6.30
2019-04-03T20:52:26.283Z,7.20
2019-04-03T20:54:55.639Z,7.03
2019-04-03T20:57:24.997Z,7.83
2019-04-03T21:00:02.058Z,5.53
2019-04-03T21:02:26.116Z,7.27
2019-04-03T21:04:55.568Z,5.73
2019-04-03T21:07:24.943Z,7.75
2019-04-03T21:09:54.298Z,7.40
2019-04-03T21:12:23.647Z,9.03
2019-04-03T21:15:07.739Z,9.43
2019-04-03T21:17:28.387Z,7.43
2019-04-03T21:19:57.732Z,7.37
2019-04-03T21:22:29.664Z,7.90
2019-04-03T21:24:58.189Z,7.77
2019-04-03T21:27:27.539Z,6.97
2019-04-03T21:29:58.309Z,8.10
2019-04-03T21:32:28.822Z,7.35
2019-04-03T21:34:58.666Z,7.67
2019-04-03T21:37:28.061Z,7.37
2019-04-03T21:39:57.418Z,7.47
2019-04-03T21:42:27.419Z,8.15
2019-04-03T21:44:57.492Z,7.97
2019-04-03T21:47:26.880Z,9.35
2019-04-03T21:49:56.236Z,8.07
2019-04-03T21:52:26.982Z,7.60
2019-04-03T21:54:58.352Z,8.93
2019-04-03T21:57:27.416Z,6.97
2019-04-03T21:59:57.197Z,10.23
2019-04-03T22:02:26.572Z,8.57
2019-04-03T22:04:56.812Z,8.53
2019-04-03T22:07:28.189Z,8.37
2019-04-03T22:09:57.258Z,8.30
2019-04-03T22:12:26.602Z,8.33
2019-04-03T22:14:55.993Z,7.47
2019-04-03T22:17:28.261Z,8.87
2019-04-03T22:19:58.611Z,7.80
2019-04-03T22:22:29.049Z,8.07
2019-04-03T22:24:58.984Z,6.97
2019-04-03T22:27:28.336Z,14.63
2019-04-03T22:29:57.703Z,8.43
2019-04-03T22:32:27.063Z,9.00
2019-04-03T22:34:56.427Z,10.63
2019-04-03T22:37:25.806Z,7.53
2019-04-03T22:39:55.161Z,8.50
2019-04-03T22:42:26.184Z,6.80
2019-04-03T22:44:55.919Z,8.23
2019-04-03T22:47:25.758Z,8.20
2019-04-03T22:49:55.194Z,6.87
2019-04-03T22:52:24.743Z,9.87
2019-04-03T22:54:54.090Z,6.90
2019-04-03T22:57:23.440Z,8.50
2019-04-03T22:59:54.427Z,6.40
2019-04-03T23:02:23.923Z,7.23
2019-04-03T23:04:53.267Z,5.60
2019-04-03T23:07:23.197Z,7.13
2019-04-03T23:09:52.536Z,6.30
2019-04-03T23:12:21.883Z,8.00
2019-04-03T23:14:51.248Z,7.13
2019-04-03T23:17:20.590Z,7.40
2019-04-03T23:19:51.735Z,7.00
2019-04-03T23:22:21.542Z,6.87
2019-04-03T23:24:50.902Z,11.70
2019-04-03T23:27:20.241Z,10.67
2019-04-03T23:29:49.619Z,6.97
2019-04-03T23:32:18.966Z,7.60
2019-04-03T23:34:49.565Z,7.83
2019-04-03T23:37:21.121Z,5.80
2019-04-03T23:39:50.471Z,6.87
2019-04-03T23:42:19.830Z,6.97
2019-04-03T23:44:49.199Z,7.33
2019-04-03T23:47:18.562Z,7.57
2019-04-03T23:49:50.769Z,8.00
2019-04-03T23:52:19.427Z,7.73
2019-04-03T23:54:48.776Z,7.40
2019-04-03T23:57:18.121Z,7.20
2019-04-03T23:59:47.500Z,7.10
